createdAt,value
2022-11-20T00:01:23.659Z,28.15
2022-11-20T00:03:53.121Z,28.02
2022-11-20T00:06:21.646Z,33.63
2022-11-20T00:08:48.890Z,29.58
2022-11-20T00:11:20.942Z,29.15
2022-11-20T00:13:50.196Z,29.52
2022-11-20T00:16:20.006Z,29.40
2022-11-20T00:18:47.750Z,28.92
2022-11-20T00:21:25.699Z,28.58
2022-11-20T00:23:55.897Z,27.10
2022-11-20T00:26:24.771Z,28.90
2022-11-20T00:28:57.001Z,26.98
2022-11-20T00:31:24.511Z,26.80
2022-11-20T00:33:51.966Z,26.23
2022-11-20T00:36:24.282Z,27.83
2022-11-20T00:38:55.758Z,24.60
2022-11-20T00:41:23.938Z,24.27
2022-11-20T00:43:52.873Z,29.42
2022-11-20T00:46:24.863Z,32.33
2022-11-20T00:48:52.014Z,23.52
2022-11-20T00:51:21.928Z,23.45
2022-11-20T00:53:49.182Z,23.90
2022-11-20T00:56:18.243Z,24.65
2022-11-20T00:58:47.383Z,25.73
2022-11-20T01:01:19.944Z,24.70
2022-11-20T01:03:50.827Z,25.63
2022-11-20T01:06:19.750Z,28.23
2022-11-20T01:08:47.600Z,27.33
2022-11-20T01:11:19.058Z,24.33
2022-11-20T01:13:47.885Z,25.77
2022-11-20T01:16:17.892Z,26.27
2022-11-20T01:18:47.308Z,26.40
2022-11-20T01:21:29.424Z,26.33
2022-11-20T01:23:56.726Z,25.02
2022-11-20T01:26:26.774Z,29.33
2022-11-20T01:28:54.806Z,29.42
2022-11-20T01:31:32.830Z,28.98
2022-11-20T01:34:02.952Z,29.13
2022-11-20T01:36:31.924Z,31.50
2022-11-20T01:39:01.664Z,25.33
2022-11-20T01:41:50.446Z,26.73
2022-11-20T01:44:20.527Z,26.17
2022-11-20T01:47:05.207Z,23.80
2022-11-20T01:49:43.623Z,23.60
2022-11-20T01:52:25.773Z,24.08
2022-11-20T01:55:01.947Z,24.13
2022-11-20T01:57:32.629Z,21.48
2022-11-20T02:00:05.460Z,23.40
2022-11-20T02:02:41.959Z,19.10
2022-11-20T02:05:29.853Z,21.85
2022-11-20T02:07:59.025Z,20.67
2022-11-20T02:10:27.510Z,19.75
2022-11-20T02:13:13.298Z,17.38
2022-11-20T02:15:41.395Z,17.98
2022-11-20T02:18:09.102Z,17.33
2022-11-20T02:20:36.450Z,18.75
2022-11-20T02:23:13.719Z,17.02
2022-11-20T02:25:42.918Z,16.98
2022-11-20T02:28:10.616Z,16.83
2022-11-20T02:30:37.555Z,16.42
2022-11-20T02:33:04.528Z,14.68
2022-11-20T02:35:31.736Z,14.52
2022-11-20T02:38:02.438Z,14.40
2022-11-20T02:40:29.882Z,16.08
2022-11-20T02:42:57.751Z,12.75
2022-11-20T02:45:25.400Z,12.10
2022-11-20T02:47:52.861Z,12.95
2022-11-20T02:50:19.939Z,11.27
2022-11-20T02:52:46.883Z,12.32
2022-11-20T02:55:13.903Z,10.45
2022-11-20T02:57:40.954Z,9.80
2022-11-20T03:00:08.924Z,9.75
2022-11-20T03:02:36.158Z,8.63
2022-11-20T03:05:03.769Z,8.25
2022-11-20T03:07:30.730Z,8.13
2022-11-20T03:09:57.739Z,7.43
2022-11-20T03:12:24.622Z,7.85
2022-11-20T03:14:53.324Z,7.03
2022-11-20T03:17:20.840Z,7.05
2022-11-20T03:19:47.946Z,7.10
2022-11-20T03:22:14.903Z,7.45
2022-11-20T03:24:41.896Z,7.13
2022-11-20T03:27:08.907Z,6.68
2022-11-20T03:29:36.814Z,6.55
2022-11-20T03:32:03.803Z,6.93
2022-11-20T03:34:30.777Z,6.55
2022-11-20T03:36:57.729Z,6.00
2022-11-20T03:39:24.781Z,6.43
2022-11-20T03:41:51.739Z,5.18
2022-11-20T03:44:21.987Z,5.35
2022-11-20T03:46:49.006Z,5.80
2022-11-20T03:49:15.927Z,5.85
2022-11-20T03:51:42.882Z,5.22
2022-11-20T03:54:10.183Z,4.80
2022-11-20T03:56:40.121Z,4.18
2022-11-20T03:59:07.305Z,4.57
2022-11-20T04:01:36.827Z,4.07
2022-11-20T04:04:04.897Z,4.60
2022-11-20T04:06:36.246Z,4.80
2022-11-20T04:09:03.549Z,4.22
2022-11-20T04:11:32.898Z,4.10
2022-11-20T04:14:02.258Z,4.28
2022-11-20T04:16:34.506Z,3.17
2022-11-20T04:19:03.517Z,3.65
2022-11-20T04:21:30.443Z,3.13
2022-11-20T04:23:57.942Z,2.88
2022-11-20T04:26:26.980Z,3.60
2022-11-20T04:28:54.578Z,3.35
2022-11-20T04:31:29.762Z,3.15
2022-11-20T04:33:59.975Z,2.60
2022-11-20T04:36:28.952Z,3.45
2022-11-20T04:39:01.116Z,2.67
2022-11-20T04:41:30.774Z,3.22
2022-11-20T04:44:02.842Z,2.58
2022-11-20T04:46:38.747Z,2.40
2022-11-20T04:49:06.300Z,2.63
2022-11-20T04:51:33.866Z,2.30
2022-11-20T04:54:01.129Z,3.00
2022-11-20T04:56:28.373Z,2.60
2022-11-20T04:58:55.394Z,2.95
2022-11-20T05:01:24.612Z,2.47
2022-11-20T05:03:52.375Z,2.40
2022-11-20T05:06:21.162Z,2.42
2022-11-20T05:08:48.219Z,3.42
2022-11-20T05:11:21.173Z,3.15
2022-11-20T05:13:48.951Z,2.70
2022-11-20T05:16:21.307Z,3.13
2022-11-20T05:18:48.889Z,2.65
2022-11-20T05:21:16.750Z,2.95
2022-11-20T05:23:44.810Z,2.88
2022-11-20T05:26:17.765Z,2.53
2022-11-20T05:28:45.057Z,3.38
2022-11-20T05:31:14.827Z,2.67
2022-11-20T05:33:43.224Z,3.20
2022-11-20T05:36:11.143Z,3.20
2022-11-20T05:38:38.276Z,3.00
2022-11-20T05:41:15.766Z,2.78
2022-11-20T05:43:44.551Z,2.30
2022-11-20T05:46:13.652Z,3.20
2022-11-20T05:48:42.813Z,2.67
2022-11-20T05:51:13.794Z,2.90
2022-11-20T05:53:47.902Z,3.17
2022-11-20T05:56:18.117Z,3.30
2022-11-20T05:58:46.043Z,3.53
2022-11-20T06:01:21.714Z,3.35
2022-11-20T06:03:51.485Z,3.00
2022-11-20T06:06:19.910Z,3.38
2022-11-20T06:08:47.342Z,2.80
2022-11-20T06:11:15.309Z,3.22
2022-11-20T06:13:43.042Z,3.00
2022-11-20T06:16:12.582Z,3.00
2022-11-20T06:18:39.922Z,2.80
2022-11-20T06:21:10.007Z,3.03
2022-11-20T06:23:37.885Z,3.17
2022-11-20T06:26:13.317Z,3.03
2022-11-20T06:28:40.870Z,3.47
2022-11-20T06:31:08.669Z,2.60
2022-11-20T06:33:35.823Z,3.25
2022-11-20T06:36:08.923Z,4.05
2022-11-20T06:38:37.370Z,3.38
2022-11-20T06:41:05.430Z,3.40
2022-11-20T06:43:32.489Z,3.17
2022-11-20T06:46:01.134Z,2.97
2022-11-20T06:48:29.431Z,4.35
2022-11-20T06:50:58.187Z,3.53
2022-11-20T06:53:25.599Z,3.83
2022-11-20T06:55:53.621Z,3.53
2022-11-20T06:58:20.711Z,3.45
2022-11-20T07:00:47.712Z,3.13
2022-11-20T07:03:14.907Z,2.83
2022-11-20T07:05:41.995Z,3.53
2022-11-20T07:08:10.603Z,3.00
2022-11-20T07:10:37.690Z,2.80
2022-11-20T07:13:04.916Z,3.67
2022-11-20T07:15:31.988Z,2.70
2022-11-20T07:18:02.629Z,2.47
2022-11-20T07:20:30.104Z,3.25
2022-11-20T07:22:58.246Z,2.67
2022-11-20T07:25:26.763Z,2.88
2022-11-20T07:27:53.801Z,2.90
2022-11-20T07:30:20.805Z,2.63
2022-11-20T07:32:48.925Z,2.80
2022-11-20T07:35:15.949Z,2.85
2022-11-20T07:37:42.910Z,2.80
2022-11-20T07:40:10.455Z,3.33
2022-11-20T07:42:37.372Z,3.17
2022-11-20T07:45:04.571Z,2.83
2022-11-20T07:47:37.360Z,3.33
2022-11-20T07:50:04.722Z,3.03
2022-11-20T07:52:31.602Z,2.85
2022-11-20T07:54:58.562Z,2.97
2022-11-20T07:57:28.283Z,2.97
2022-11-20T07:59:55.591Z,2.75
2022-11-20T08:02:22.524Z,2.65
2022-11-20T08:04:49.622Z,2.80
2022-11-20T08:07:16.762Z,2.30
2022-11-20T08:09:43.804Z,2.38
2022-11-20T08:12:38.089Z,2.55
2022-11-20T08:15:12.561Z,2.42
2022-11-20T08:17:40.268Z,3.03
2022-11-20T08:20:07.693Z,2.80
2022-11-20T08:22:34.656Z,2.70
2022-11-20T08:25:01.740Z,2.83
2022-11-20T08:27:28.753Z,3.35
2022-11-20T08:29:55.880Z,2.83
2022-11-20T08:32:23.007Z,3.15
2022-11-20T08:34:49.915Z,2.88
2022-11-20T08:37:16.918Z,2.50
2022-11-20T08:39:43.848Z,2.80
2022-11-20T08:42:11.052Z,2.70
2022-11-20T08:44:37.943Z,2.95
2022-11-20T08:47:04.899Z,3.30
2022-11-20T08:49:31.839Z,2.47
2022-11-20T08:51:58.832Z,2.47
2022-11-20T08:54:25.743Z,2.78
2022-11-20T08:56:52.763Z,2.10
2022-11-20T08:59:43.303Z,3.40
2022-11-20T09:02:06.992Z,2.30
2022-11-20T09:04:33.955Z,3.03
2022-11-20T09:07:01.800Z,2.22
2022-11-20T09:09:29.263Z,2.72
2022-11-20T09:11:56.290Z,2.22
2022-11-20T09:14:25.728Z,2.28
2022-11-20T09:16:52.781Z,2.20
2022-11-20T09:22:06.630Z,2.40
2022-11-20T09:24:33.645Z,2.35
2022-11-20T09:27:03.898Z,2.30
2022-11-20T09:29:30.911Z,2.55
2022-11-20T09:31:57.882Z,2.80
2022-11-20T09:34:24.844Z,3.30
2022-11-20T09:36:51.794Z,2.78
2022-11-20T09:39:19.240Z,3.30
2022-11-20T09:42:10.556Z,2.90
2022-11-20T09:44:52.403Z,3.53
2022-11-20T09:47:56.248Z,2.72
2022-11-20T09:50:33.934Z,3.00
2022-11-20T09:53:38.674Z,2.53
2022-11-20T09:56:06.095Z,3.00
2022-11-20T09:58:49.962Z,2.97
2022-11-20T10:01:27.220Z,2.45
2022-11-20T10:04:21.574Z,2.45
2022-11-20T10:07:31.376Z,2.38
2022-11-20T10:09:58.552Z,2.65
2022-11-20T10:12:30.957Z,2.60
2022-11-20T10:15:03.923Z,2.92
2022-11-20T10:17:57.906Z,2.97
2022-11-20T10:20:47.308Z,2.70
2022-11-20T10:23:51.367Z,3.45
2022-11-20T10:26:57.295Z,3.72
2022-11-20T10:29:34.749Z,3.30
2022-11-20T10:32:09.342Z,3.20
2022-11-20T10:34:52.011Z,2.70
2022-11-20T10:37:30.144Z,3.28
2022-11-20T10:40:16.249Z,2.80
2022-11-20T10:42:45.277Z,3.10
2022-11-20T10:45:33.795Z,2.78
2022-11-20T10:48:12.699Z,2.72
2022-11-20T10:50:50.916Z,2.40
2022-11-20T10:53:32.755Z,3.00
2022-11-20T10:56:08.597Z,2.70
2022-11-20T10:58:59.587Z,2.17
2022-11-20T11:01:28.082Z,2.60
2022-11-20T11:03:58.176Z,2.75
2022-11-20T11:06:38.852Z,2.65
2022-11-20T11:09:14.565Z,2.30
2022-11-20T11:11:41.717Z,2.55
2022-11-20T11:14:10.733Z,2.65
2022-11-20T11:16:54.324Z,2.33
2022-11-20T11:19:22.077Z,2.42
2022-11-20T11:21:55.651Z,3.20
2022-11-20T11:24:42.074Z,3.25
2022-11-20T11:27:17.694Z,2.60
2022-11-20T11:29:46.280Z,2.33
2022-11-20T11:32:14.424Z,2.40
2022-11-20T11:34:43.126Z,2.25
2022-11-20T11:37:25.223Z,2.30
2022-11-20T11:40:16.466Z,2.50
2022-11-20T11:42:55.084Z,2.03
2022-11-20T11:45:23.055Z,2.10
2022-11-20T11:47:52.625Z,2.03
2022-11-20T11:50:21.819Z,2.10
2022-11-20T11:53:19.463Z,2.40
2022-11-20T11:55:55.326Z,2.20
2022-11-20T11:58:42.303Z,3.00
2022-11-20T12:01:28.918Z,2.28
2022-11-20T12:04:29.656Z,1.70
2022-11-20T12:07:24.296Z,1.85
2022-11-20T12:09:55.715Z,1.70
2022-11-20T12:12:38.275Z,2.00
2022-11-20T12:15:11.819Z,1.80
2022-11-20T12:17:38.880Z,1.98
2022-11-20T12:20:16.832Z,2.42
2022-11-20T12:23:16.011Z,1.83
2022-11-20T12:25:47.411Z,2.13
2022-11-20T12:28:20.726Z,1.60
2022-11-20T12:31:11.314Z,2.72
2022-11-20T12:34:07.256Z,2.95
2022-11-20T12:36:57.415Z,3.47
2022-11-20T12:39:33.384Z,3.33
2022-11-20T12:42:49.857Z,3.88
2022-11-20T12:45:43.946Z,3.55
2022-11-20T12:48:30.042Z,3.60
2022-11-20T12:51:32.222Z,3.47
2022-11-20T12:54:12.328Z,2.90
2022-11-20T12:57:09.666Z,3.25
2022-11-20T12:59:51.564Z,3.63
2022-11-20T13:02:28.103Z,4.72
2022-11-20T13:05:13.904Z,4.00
2022-11-20T13:07:43.173Z,3.95
2022-11-20T13:10:28.750Z,3.97
2022-11-20T13:13:02.387Z,4.15
2022-11-20T13:16:02.340Z,5.30
2022-11-20T13:18:35.144Z,6.93
2022-11-20T13:21:02.293Z,11.25
2022-11-20T13:23:29.502Z,6.07
2022-11-20T13:26:15.007Z,6.13
2022-11-20T13:28:42.104Z,5.57
2022-11-20T13:31:34.908Z,5.63
2022-11-20T13:34:05.798Z,5.13
2022-11-20T13:36:38.091Z,4.53
2022-11-20T13:39:05.103Z,3.38
2022-11-20T13:41:38.962Z,3.65
2022-11-20T13:46:45.826Z,3.60
2022-11-20T13:49:33.983Z,3.42
2022-11-20T13:52:15.912Z,3.50
2022-11-20T13:55:01.584Z,3.00
2022-11-20T13:57:55.771Z,3.00
2022-11-20T14:00:24.860Z,3.08
2022-11-20T14:03:06.650Z,3.80
2022-11-20T14:05:41.281Z,2.85
2022-11-20T14:08:17.843Z,3.08
2022-11-20T14:10:44.872Z,2.90
2022-11-20T14:13:21.971Z,3.20
2022-11-20T14:15:48.950Z,3.22
2022-11-20T14:18:22.912Z,3.33
2022-11-20T14:23:29.684Z,2.83
2022-11-20T14:25:57.852Z,3.95
2022-11-20T14:28:30.109Z,3.33
2022-11-20T14:30:57.994Z,3.00
2022-11-20T14:33:27.288Z,2.85
2022-11-20T14:35:56.695Z,3.05
2022-11-20T14:38:27.857Z,3.53
2022-11-20T14:40:55.114Z,3.15
2022-11-20T14:43:26.281Z,3.63
2022-11-20T14:46:10.866Z,3.85
2022-11-20T14:48:43.255Z,3.20
2022-11-20T14:51:12.458Z,3.35
2022-11-20T14:53:39.411Z,3.28
2022-11-20T14:56:06.436Z,3.20
2022-11-20T14:58:34.743Z,4.15
2022-11-20T15:01:02.780Z,4.05
2022-11-20T15:03:40.753Z,3.88
2022-11-20T15:06:11.427Z,2.90
2022-11-20T15:08:38.483Z,3.42
2022-11-20T15:11:44.066Z,3.38
2022-11-20T15:14:11.652Z,3.63
2022-11-20T15:16:40.194Z,3.65
2022-11-20T15:19:18.527Z,3.72
2022-11-20T15:21:45.474Z,3.55
2022-11-20T15:24:12.448Z,3.90
2022-11-20T15:26:42.852Z,3.60
2022-11-20T15:29:12.827Z,3.58
2022-11-20T15:31:45.796Z,3.60
2022-11-20T15:34:13.802Z,3.85
2022-11-20T15:36:41.562Z,3.90
2022-11-20T15:39:09.609Z,3.95
2022-11-20T15:41:37.404Z,3.20
2022-11-20T15:44:05.446Z,3.28
2022-11-20T15:46:41.018Z,3.70
2022-11-20T15:49:13.525Z,4.25
2022-11-20T15:51:47.620Z,3.78
2022-11-20T15:56:49.705Z,3.55
2022-11-20T15:59:16.925Z,4.18
2022-11-20T16:01:44.359Z,4.38
2022-11-20T16:04:13.735Z,3.60
2022-11-20T16:06:40.787Z,4.13
2022-11-20T16:09:08.623Z,3.75
2022-11-20T16:11:38.807Z,3.47
2022-11-20T16:14:25.613Z,3.10
2022-11-20T16:16:53.062Z,3.35
2022-11-20T16:19:20.201Z,2.85
2022-11-20T16:21:47.370Z,3.97
2022-11-20T16:24:15.647Z,2.95
2022-11-20T16:26:43.408Z,2.75
2022-11-20T16:29:11.177Z,3.88
2022-11-20T16:31:38.592Z,4.47
2022-11-20T16:34:12.322Z,3.10
2022-11-20T16:36:51.111Z,2.90
2022-11-20T16:39:23.306Z,3.92
2022-11-20T16:41:50.763Z,3.55
2022-11-20T16:44:17.656Z,4.10
2022-11-20T16:46:44.601Z,3.63
2022-11-20T16:49:15.398Z,5.82
2022-11-20T16:51:43.391Z,4.95
2022-11-20T16:54:11.270Z,3.35
2022-11-20T16:56:40.258Z,4.47
2022-11-20T16:59:07.534Z,4.20
2022-11-20T17:01:37.452Z,3.50
2022-11-20T17:04:06.540Z,3.90
2022-11-20T17:06:35.648Z,3.53
2022-11-20T17:09:03.546Z,4.18
2022-11-20T17:11:30.871Z,4.00
2022-11-20T17:14:00.756Z,5.07
2022-11-20T17:16:28.390Z,3.70
2022-11-20T17:19:01.350Z,3.88
2022-11-20T17:21:30.243Z,3.30
2022-11-20T17:24:00.166Z,2.72
2022-11-20T17:26:28.387Z,2.97
2022-11-20T17:29:04.779Z,3.17
2022-11-20T17:31:33.324Z,3.15
2022-11-20T17:34:01.743Z,2.80
2022-11-20T17:36:29.984Z,3.17
2022-11-20T17:38:57.126Z,3.42
2022-11-20T17:41:26.347Z,2.97
2022-11-20T17:43:55.565Z,3.58
2022-11-20T17:46:25.840Z,4.50
2022-11-20T17:48:53.188Z,2.92
2022-11-20T17:51:23.725Z,3.70
2022-11-20T17:53:54.198Z,5.57
2022-11-20T17:56:40.369Z,4.15
2022-11-20T17:59:09.594Z,3.88
2022-11-20T18:01:37.367Z,4.65
2022-11-20T18:04:04.731Z,4.47
2022-11-20T18:06:32.409Z,4.18
2022-11-20T18:09:00.610Z,3.92
2022-11-20T18:11:29.862Z,4.57
2022-11-20T18:14:18.274Z,4.40
2022-11-20T18:16:47.965Z,4.38
2022-11-20T18:19:19.011Z,5.03
2022-11-20T18:21:46.087Z,3.22
2022-11-20T18:24:13.164Z,4.18
2022-11-20T18:26:44.318Z,3.38
2022-11-20T18:29:13.438Z,3.75
2022-11-20T18:31:41.169Z,4.13
2022-11-20T18:34:11.624Z,4.20
2022-11-20T18:36:39.123Z,3.63
2022-11-20T18:39:06.478Z,3.78
2022-11-20T18:42:09.099Z,3.80
2022-11-20T18:44:54.999Z,3.80
2022-11-20T18:47:30.788Z,3.92
2022-11-20T18:50:01.990Z,4.97
2022-11-20T18:52:33.879Z,3.65
2022-11-20T18:55:02.659Z,4.43
2022-11-20T18:57:30.431Z,4.13
2022-11-20T19:00:07.869Z,3.50
2022-11-20T19:02:40.971Z,3.72
2022-11-20T19:05:10.781Z,3.03
2022-11-20T19:07:37.825Z,2.67
2022-11-20T19:10:06.127Z,2.83
2022-11-20T19:12:33.141Z,2.35
2022-11-20T19:15:00.159Z,2.05
2022-11-20T19:17:27.128Z,2.00
2022-11-20T19:19:55.009Z,1.45
2022-11-20T19:22:22.424Z,2.03
2022-11-20T19:24:49.626Z,1.83
2022-11-20T19:27:16.748Z,2.17
2022-11-20T19:29:43.726Z,2.25
2022-11-20T19:32:10.788Z,2.25
2022-11-20T19:34:37.716Z,1.42
2022-11-20T19:37:05.237Z,1.58
2022-11-20T19:39:32.152Z,1.60
2022-11-20T19:41:59.176Z,1.55
2022-11-20T19:44:26.150Z,2.20
2022-11-20T19:46:53.191Z,2.08
2022-11-20T19:49:21.010Z,2.90
2022-11-20T19:51:49.506Z,2.42
2022-11-20T19:54:17.416Z,2.80
2022-11-20T19:56:45.564Z,2.42
2022-11-20T19:59:13.823Z,1.90
2022-11-20T20:01:41.010Z,2.20
2022-11-20T20:04:08.122Z,3.55
2022-11-20T20:06:38.805Z,2.22
2022-11-20T20:09:11.925Z,2.50
2022-11-20T20:11:39.839Z,2.40
2022-11-20T20:14:10.026Z,2.17
2022-11-20T20:16:37.429Z,13.52
2022-11-20T20:19:05.649Z,19.30
2022-11-20T20:21:35.035Z,22.05
2022-11-20T20:24:02.534Z,22.65
2022-11-20T20:26:31.909Z,24.35
2022-11-20T20:29:00.026Z,17.20
2022-11-20T20:31:29.188Z,15.07
2022-11-20T20:33:57.192Z,11.82
2022-11-20T20:36:25.022Z,10.85
2022-11-20T20:38:56.205Z,13.23
2022-11-20T20:41:25.097Z,8.75
2022-11-20T20:44:11.453Z,5.28
2022-11-20T20:46:38.798Z,4.32
2022-11-20T20:49:05.809Z,5.47
2022-11-20T20:51:32.803Z,4.45
2022-11-20T20:53:59.932Z,3.30
2022-11-20T20:56:27.370Z,3.17
2022-11-20T20:58:54.271Z,3.30
2022-11-20T21:01:22.819Z,3.58
2022-11-20T21:03:49.904Z,3.38
2022-11-20T21:06:17.226Z,3.92
2022-11-20T21:08:44.736Z,4.43
2022-11-20T21:11:17.448Z,3.17
2022-11-20T21:13:45.778Z,3.08
2022-11-20T21:16:14.453Z,4.45
2022-11-20T21:18:41.963Z,3.03
2022-11-20T21:21:29.859Z,3.28
2022-11-20T21:23:56.907Z,2.78
2022-11-20T21:26:23.937Z,3.72
2022-11-20T21:28:51.002Z,3.47
2022-11-20T21:31:23.480Z,3.15
2022-11-20T21:33:52.535Z,3.00
2022-11-20T21:36:22.229Z,3.10
2022-11-20T21:38:51.306Z,3.13
2022-11-20T21:41:18.878Z,3.47
2022-11-20T21:43:51.620Z,3.53
2022-11-20T21:46:26.406Z,3.35
2022-11-20T21:48:53.479Z,4.38
2022-11-20T21:51:22.363Z,3.47
2022-11-20T21:53:50.342Z,3.28
2022-11-20T21:56:20.684Z,3.30
2022-11-20T21:58:48.679Z,3.25
2022-11-20T22:01:18.468Z,2.95
2022-11-20T22:03:54.041Z,2.05
2022-11-20T22:06:21.627Z,2.10
2022-11-20T22:08:49.039Z,2.38
2022-11-20T22:11:18.653Z,2.45
2022-11-20T22:14:04.183Z,1.80
2022-11-20T22:16:32.787Z,1.90
2022-11-20T22:18:59.790Z,2.08
2022-11-20T22:21:28.796Z,1.88
2022-11-20T22:23:56.333Z,1.98
2022-11-20T22:26:28.537Z,1.50
2022-11-20T22:28:58.279Z,1.88
2022-11-20T22:31:29.674Z,2.13
2022-11-20T22:33:58.007Z,2.15
2022-11-20T22:36:29.024Z,1.58
2022-11-20T22:38:56.504Z,2.05
2022-11-20T22:41:27.261Z,2.13
2022-11-20T22:43:58.666Z,1.90
2022-11-20T22:46:27.534Z,1.70
2022-11-20T22:48:56.381Z,1.60
2022-11-20T22:51:28.814Z,1.65
2022-11-20T22:53:56.137Z,1.70
2022-11-20T22:56:24.149Z,2.17
2022-11-20T22:58:52.965Z,1.80
2022-11-20T23:01:28.978Z,1.67
2022-11-20T23:04:04.310Z,1.70
2022-11-20T23:06:34.476Z,1.58
2022-11-20T23:09:02.576Z,1.65
2022-11-20T23:11:31.146Z,1.80
2022-11-20T23:14:00.445Z,1.40
2022-11-20T23:16:29.226Z,1.52
2022-11-20T23:19:02.228Z,1.48
2022-11-20T23:21:29.391Z,1.17
2022-11-20T23:23:57.852Z,1.92
2022-11-20T23:26:27.782Z,1.70
2022-11-20T23:28:57.620Z,1.70
2022-11-20T23:31:25.663Z,1.30
2022-11-20T23:33:52.979Z,1.23
2022-11-20T23:36:20.295Z,2.38
2022-11-20T23:38:47.357Z,1.70
2022-11-20T23:41:14.762Z,1.48
2022-11-20T23:43:41.760Z,1.55
2022-11-20T23:46:13.758Z,1.50
2022-11-20T23:48:45.025Z,1.63
2022-11-20T23:51:12.724Z,1.42
2022-11-20T23:53:39.988Z,1.23
2022-11-20T23:56:07.390Z,1.90
2022-11-20T23:58:38.684Z,1.85
